Time;durP1;ratioP1;P1;durP2;ratioP2;P2;SDS_P1;SDS_P2;PMS_P1;PMS_P2;Temp;Humidity;BMP_temperature;BMP_pressure;BME280_temperature;BME280_humidity;BME280_pressure;Samples;Min_cycle;Max_cycle;Signal;HPM_P1;HPM_P2
2021/06/17 00:00:31;;;;;;;3.53;3.22;;;13.40;99.90;;;;;;5012670;28;20058;-69
2021/06/17 00:02:59;;;;;;;4.05;3.33;;;13.40;99.90;;;;;;5015311;28;20041;-70
2021/06/17 00:05:29;;;;;;;5.90;3.17;;;13.40;99.90;;;;;;5014714;28;20140;-71
2021/06/17 00:07:57;;;;;;;5.82;3.38;;;13.30;99.90;;;;;;5015539;28;20049;-68
2021/06/17 00:10:26;;;;;;;4.18;3.33;;;13.30;99.90;;;;;;5012879;28;20142;-70
2021/06/17 00:12:54;;;;;;;3.95;3.05;;;13.30;99.90;;;;;;5016391;28;20120;-67
2021/06/17 00:15:23;;;;;;;4.90;2.83;;;13.30;99.90;;;;;;5017952;28;20049;-69
2021/06/17 00:17:51;;;;;;;5.75;3.97;;;13.40;99.90;;;;;;5017352;28;20513;-69
2021/06/17 00:20:19;;;;;;;8.98;4.15;;;13.30;99.90;;;;;;5017567;28;20041;-71
2021/06/17 00:22:46;;;;;;;6.72;2.90;;;13.30;99.90;;;;;;5018103;28;20049;-68
2021/06/17 00:25:14;;;;;;;4.60;3.47;;;13.40;99.90;;;;;;5016600;28;20051;-69
2021/06/17 00:27:42;;;;;;;3.22;2.72;;;13.30;99.90;;;;;;5018998;28;20053;-69
2021/06/17 00:30:11;;;;;;;6.97;3.45;;;13.30;99.90;;;;;;5016863;28;20575;-70
2021/06/17 00:32:38;;;;;;;5.20;3.53;;;13.30;99.90;;;;;;5018101;28;20056;-68
2021/06/17 00:35:07;;;;;;;5.88;5.13;;;13.20;99.90;;;;;;5017205;28;20051;-70
2021/06/17 00:37:36;;;;;;;4.80;2.90;;;13.30;99.90;;;;;;5018464;28;20056;-67
2021/06/17 00:40:06;;;;;;;6.22;3.78;;;13.20;99.90;;;;;;5018486;28;20224;-67
2021/06/17 00:42:34;;;;;;;6.50;3.65;;;13.10;99.90;;;;;;5017592;28;20041;-67
2021/06/17 00:45:02;;;;;;;3.58;3.17;;;13.20;99.90;;;;;;5018507;28;20164;-71
2021/06/17 00:47:29;;;;;;;6.95;4.85;;;13.10;99.90;;;;;;5021757;28;20081;-69
2021/06/17 00:49:56;;;;;;;6.40;3.60;;;13.10;99.90;;;;;;5021371;28;20153;-68
2021/06/17 00:52:23;;;;;;;4.15;3.22;;;13.10;99.90;;;;;;5021238;28;20126;-70
2021/06/17 00:54:50;;;;;;;6.55;3.90;;;13.10;99.90;;;;;;5021640;28;20908;-69
2021/06/17 00:57:17;;;;;;;4.95;4.53;;;13.10;99.90;;;;;;5023209;28;20176;-69
2021/06/17 00:59:44;;;;;;;7.18;4.32;;;13.10;99.90;;;;;;5021221;28;20045;-68
2021/06/17 01:02:12;;;;;;;7.53;4.20;;;13.00;99.90;;;;;;5021777;28;20049;-69
2021/06/17 01:04:39;;;;;;;5.43;3.40;;;13.00;99.90;;;;;;5020789;28;20065;-68
2021/06/17 01:07:06;;;;;;;6.57;3.35;;;13.00;99.90;;;;;;5021716;28;20252;-67
2021/06/17 01:09:40;;;;;;;9.65;3.55;;;13.00;99.90;;;;;;5022460;28;20126;-70
2021/06/17 01:12:32;;;;;;;5.28;3.58;;;13.00;99.90;;;;;;5022311;28;20053;-67
2021/06/17 01:15:04;;;;;;;7.55;3.55;;;13.00;99.90;;;;;;5020824;28;20188;-67
2021/06/17 01:17:39;;;;;;;4.05;3.35;;;13.00;99.90;;;;;;5019832;28;20071;-69
2021/06/17 01:20:06;;;;;;;9.57;3.25;;;13.00;99.90;;;;;;5019788;28;20045;-67
2021/06/17 01:23:02;;;;;;;10.50;3.92;;;12.90;99.90;;;;;;5018697;28;20551;-70
2021/06/17 01:25:41;;;;;;;4.95;3.28;;;13.00;99.90;;;;;;5020954;28;20053;-66
2021/06/17 01:28:18;;;;;;;5.00;3.33;;;12.90;99.90;;;;;;5018967;28;20056;-68
2021/06/17 01:31:08;;;;;;;6.35;4.45;;;12.90;99.90;;;;;;5021208;28;20045;-67
2021/06/17 01:33:47;;;;;;;7.85;3.63;;;13.00;99.90;;;;;;5019786;28;20045;-69
2021/06/17 01:36:18;;;;;;;9.18;3.92;;;13.00;99.90;;;;;;5020834;28;20142;-68
2021/06/17 01:38:46;;;;;;;;;;;12.90;99.90;;;;;;5019696;28;20144;-69
2021/06/17 01:41:13;;;;;;;5.10;3.88;;;13.00;99.90;;;;;;5021032;28;19998;-68
2021/06/17 01:43:43;;;;;;;8.50;3.15;;;13.00;99.90;;;;;;5020442;28;20041;-69
2021/06/17 01:46:11;;;;;;;7.85;4.13;;;12.90;99.90;;;;;;5021900;28;20085;-69
2021/06/17 01:48:39;;;;;;;8.43;4.05;;;12.90;99.90;;;;;;5018493;28;20134;-69
2021/06/17 01:51:08;;;;;;;8.45;3.90;;;12.90;99.90;;;;;;5019775;28;20419;-67
2021/06/17 01:53:37;;;;;;;3.40;3.00;;;12.90;99.90;;;;;;5017274;28;20106;-69
2021/06/17 01:56:05;;;;;;;3.63;3.25;;;12.90;99.90;;;;;;5020731;28;20103;-70
2021/06/17 01:58:33;;;;;;;5.15;4.05;;;12.90;99.90;;;;;;5016039;28;20162;-68
2021/06/17 02:01:03;;;;;;;7.70;4.18;;;12.90;99.90;;;;;;5020444;28;20133;-70
2021/06/17 02:03:32;;;;;;;7.20;3.85;;;12.90;99.90;;;;;;5018940;28;20049;-69
2021/06/17 02:06:00;;;;;;;5.63;3.83;;;12.90;99.90;;;;;;5020976;28;20114;-68
2021/06/17 02:08:27;;;;;;;4.93;3.50;;;12.80;99.90;;;;;;5017163;28;20107;-68
2021/06/17 02:10:54;;;;;;;4.22;3.50;;;12.90;99.90;;;;;;5020146;28;20131;-68
2021/06/17 02:13:22;;;;;;;3.97;3.58;;;12.90;99.90;;;;;;5014685;28;20134;-69
2021/06/17 02:15:49;;;;;;;3.42;3.13;;;12.90;99.90;;;;;;5013641;28;20141;-69
2021/06/17 02:18:24;;;;;;;5.05;3.47;;;13.00;99.90;;;;;;5015248;28;20048;-68
2021/06/17 02:20:53;;;;;;;3.15;2.85;;;12.90;99.90;;;;;;5014190;28;20045;-70
2021/06/17 02:23:22;;;;;;;5.18;3.55;;;12.90;99.90;;;;;;5019139;28;20072;-67
2021/06/17 02:25:53;;;;;;;4.03;3.47;;;13.00;99.90;;;;;;5019177;28;20080;-70
2021/06/17 02:28:22;;;;;;;6.47;3.95;;;13.00;99.90;;;;;;5018029;28;20770;-68
2021/06/17 02:30:52;;;;;;;4.75;3.72;;;13.00;99.90;;;;;;5017473;28;20899;-69
2021/06/17 02:33:21;;;;;;;5.10;2.75;;;13.00;99.90;;;;;;5018997;28;20060;-67
2021/06/17 02:35:52;;;;;;;4.30;3.22;;;13.00;99.90;;;;;;5015673;28;20076;-68
2021/06/17 02:38:25;;;;;;;4.35;3.17;;;13.10;99.90;;;;;;5018743;28;20087;-69
2021/06/17 02:40:58;;;;;;;3.78;2.63;;;13.10;99.90;;;;;;5008991;28;20208;-67
2021/06/17 02:43:28;;;;;;;13.02;3.90;;;13.10;99.90;;;;;;5019662;28;20069;-68
2021/06/17 02:45:55;;;;;;;4.50;3.28;;;13.10;99.90;;;;;;5017643;28;20471;-67
2021/06/17 02:48:22;;;;;;;9.60;2.90;;;13.10;99.90;;;;;;5017405;28;20106;-67
2021/06/17 02:50:50;;;;;;;3.92;2.78;;;13.10;99.90;;;;;;5017378;28;20110;-69
2021/06/17 02:53:18;;;;;;;4.18;3.83;;;13.20;99.90;;;;;;5018466;28;20515;-70
2021/06/17 02:55:45;;;;;;;7.07;3.65;;;13.20;99.90;;;;;;5018164;28;21612;-69
2021/06/17 02:58:39;;;;;;;6.03;2.97;;;13.30;99.90;;;;;;5018569;28;20076;-68
2021/06/17 03:01:29;;;;;;;3.50;2.55;;;13.30;99.90;;;;;;5017708;28;20133;-68
2021/06/17 03:04:03;;;;;;;6.80;3.20;;;13.30;99.90;;;;;;5017710;28;20049;-69
2021/06/17 03:06:44;;;;;;;5.43;2.80;;;13.30;99.90;;;;;;5017885;28;20550;-70
2021/06/17 03:09:19;;;;;;;6.22;2.38;;;13.30;99.90;;;;;;5017670;28;20124;-67
2021/06/17 03:11:48;;;;;;;4.78;2.90;;;13.30;99.90;;;;;;5020019;28;20080;-69
2021/06/17 03:14:26;;;;;;;3.47;2.53;;;13.40;99.90;;;;;;5017532;28;20123;-69
2021/06/17 03:16:56;;;;;;;6.95;3.47;;;13.40;99.90;;;;;;5008207;28;20660;-68
2021/06/17 03:19:27;;;;;;;8.63;4.30;;;13.50;99.90;;;;;;5011644;28;20056;-67
2021/06/17 03:21:59;;;;;;;6.57;2.97;;;13.50;99.90;;;;;;5010590;28;20823;-69
2021/06/17 03:24:28;;;;;;;5.07;2.80;;;13.50;99.90;;;;;;5008756;28;20049;-70
2021/06/17 03:26:59;;;;;;;4.72;2.80;;;13.60;99.90;;;;;;5011551;28;20846;-67
2021/06/17 03:29:36;;;;;;;2.72;2.53;;;13.60;99.90;;;;;;5008298;28;20084;-67
2021/06/17 03:32:05;;;;;;;3.42;3.13;;;13.60;99.90;;;;;;5015052;28;20145;-70
2021/06/17 03:34:33;;;;;;;7.68;3.22;;;13.60;99.90;;;;;;5015005;28;20135;-67
2021/06/17 03:37:01;;;;;;;10.38;3.00;;;13.70;99.90;;;;;;5018558;28;20087;-68
2021/06/17 03:39:29;;;;;;;6.15;2.80;;;13.80;99.90;;;;;;5016263;28;20160;-67
2021/06/17 03:41:57;;;;;;;3.90;2.78;;;13.80;99.90;;;;;;5017410;28;20077;-70
2021/06/17 03:44:26;;;;;;;3.97;2.83;;;13.80;99.90;;;;;;5014829;28;20125;-68
2021/06/17 03:46:56;;;;;;;2.28;2.08;;;13.80;99.90;;;;;;5018734;28;20056;-69
2021/06/17 03:49:24;;;;;;;3.17;2.83;;;13.90;99.90;;;;;;5017275;28;20049;-68
2021/06/17 03:51:53;;;;;;;5.82;3.00;;;13.90;99.90;;;;;;5018360;28;20123;-68
2021/06/17 03:54:24;;;;;;;4.60;2.85;;;13.90;99.90;;;;;;5015425;28;21381;-68
2021/06/17 03:57:00;;;;;;;4.72;2.97;;;14.00;99.90;;;;;;5017796;28;20135;-69
2021/06/17 03:59:31;;;;;;;8.15;3.42;;;14.00;99.90;;;;;;5017391;28;20166;-66
2021/06/17 04:01:59;;;;;;;8.52;2.63;;;14.10;99.90;;;;;;5017269;28;20138;-69
2021/06/17 04:04:26;;;;;;;4.28;2.33;;;14.10;99.90;;;;;;5014195;28;20147;-66
2021/06/17 04:06:59;;;;;;;6.10;2.33;;;14.10;99.90;;;;;;5016718;28;20049;-70
2021/06/17 04:09:32;;;;;;;7.83;2.80;;;14.20;99.90;;;;;;5016267;28;20115;-67
2021/06/17 04:12:06;;;;;;;4.00;2.20;;;14.20;99.90;;;;;;5017366;28;20335;-66
2021/06/17 04:14:36;;;;;;;8.52;2.40;;;14.30;99.90;;;;;;5046464;28;20053;-69
2021/06/17 04:17:06;;;;;;;5.55;2.55;;;14.40;99.90;;;;;;5017976;28;20088;-69
2021/06/17 04:19:37;;;;;;;5.03;2.63;;;14.40;99.90;;;;;;5017375;28;20707;-67
2021/06/17 04:22:08;;;;;;;5.28;2.83;;;14.50;99.90;;;;;;5015975;28;20077;-67
2021/06/17 04:24:42;;;;;;;6.03;2.90;;;14.50;99.90;;;;;;5016233;28;20118;-67
2021/06/17 04:27:09;;;;;;;7.95;3.40;;;14.60;99.90;;;;;;5016862;28;20056;-70
2021/06/17 04:29:38;;;;;;;7.55;4.95;;;14.60;99.90;;;;;;5018289;28;20140;-69
2021/06/17 04:32:08;;;;;;;3.27;2.33;;;14.70;99.90;;;;;;5017773;28;20122;-67
2021/06/17 04:34:38;;;;;;;4.97;2.88;;;14.70;99.90;;;;;;5015241;28;20492;-69
2021/06/17 04:37:09;;;;;;;4.23;2.87;;;14.80;99.90;;;;;;5015531;28;20057;-68
2021/06/17 04:39:37;;;;;;;2.58;2.38;;;14.80;99.90;;;;;;5016308;28;20361;-68
2021/06/17 04:42:06;;;;;;;6.40;4.30;;;14.90;99.90;;;;;;5013788;28;20077;-67
2021/06/17 04:44:34;;;;;;;6.72;2.83;;;14.90;99.90;;;;;;5013215;28;20053;-68
2021/06/17 04:47:02;;;;;;;3.25;2.92;;;15.00;99.90;;;;;;5014063;28;20711;-69
2021/06/17 04:49:32;;;;;;;2.40;2.05;;;15.00;99.90;;;;;;5016560;28;20056;-67
2021/06/17 04:52:01;;;;;;;3.38;2.20;;;15.10;99.90;;;;;;5013539;28;20180;-68
2021/06/17 04:54:28;;;;;;;4.00;2.90;;;15.10;99.90;;;;;;5011270;28;20073;-68
2021/06/17 04:56:55;;;;;;;3.88;3.50;;;15.20;99.90;;;;;;5015387;28;20126;-70
2021/06/17 04:59:22;;;;;;;7.28;2.00;;;15.20;99.90;;;;;;5016237;28;20417;-68
2021/06/17 05:01:50;;;;;;;4.10;2.17;;;15.20;99.90;;;;;;5013784;28;20183;-66
2021/06/17 05:04:18;;;;;;;2.17;1.90;;;15.30;99.90;;;;;;5014566;28;20689;-67
2021/06/17 05:06:54;;;;;;;4.22;2.28;;;15.40;99.90;;;;;;5009668;28;20045;-67
2021/06/17 05:12:07;;;;;;;4.05;2.05;;;15.50;99.90;;;;;;5016213;28;20139;-67
2021/06/17 05:14:36;;;;;;;1.90;1.80;;;15.50;99.90;;;;;;5013736;28;20064;-67
2021/06/17 05:17:03;;;;;;;5.18;2.65;;;15.60;99.90;;;;;;5014485;28;20156;-67
2021/06/17 05:19:29;;;;;;;3.53;1.60;;;15.60;99.90;;;;;;5016186;28;20081;-67
2021/06/17 05:21:57;;;;;;;5.75;1.80;;;15.70;99.90;;;;;;5014010;28;20041;-67
2021/06/17 05:24:24;;;;;;;4.85;1.65;;;15.70;99.90;;;;;;5010205;28;20082;-69
2021/06/17 05:26:51;;;;;;;2.85;2.65;;;15.70;99.90;;;;;;5014541;28;20081;-68
2021/06/17 05:29:18;;;;;;;3.22;2.08;;;15.80;99.90;;;;;;5017574;28;20072;-69
2021/06/17 05:31:45;;;;;;;2.17;1.73;;;15.80;99.90;;;;;;5015209;28;20111;-67
2021/06/17 05:34:12;;;;;;;4.60;1.95;;;15.90;99.90;;;;;;5018685;28;20088;-70
2021/06/17 05:36:39;;;;;;;4.60;2.35;;;16.00;99.90;;;;;;5015880;28;20523;-67
2021/06/17 05:39:06;;;;;;;3.05;2.03;;;16.00;99.90;;;;;;5019068;28;20144;-69
2021/06/17 05:41:32;;;;;;;3.17;2.03;;;16.10;99.90;;;;;;5015756;28;20224;-67
2021/06/17 05:43:59;;;;;;;3.42;2.20;;;16.10;99.90;;;;;;5019529;28;20080;-68
2021/06/17 05:46:26;;;;;;;5.10;2.25;;;16.10;99.90;;;;;;5014505;28;20091;-67
2021/06/17 05:48:53;;;;;;;4.30;2.33;;;16.20;99.90;;;;;;5016875;28;20048;-68
2021/06/17 05:51:20;;;;;;;2.08;1.85;;;16.20;99.90;;;;;;5015234;28;20057;-69
2021/06/17 05:53:47;;;;;;;14.40;4.45;;;16.30;99.90;;;;;;5018804;28;20139;-69
2021/06/17 05:56:14;;;;;;;4.28;2.15;;;16.30;99.90;;;;;;5016033;28;20053;-68
2021/06/17 05:58:44;;;;;;;2.75;1.92;;;16.40;99.90;;;;;;5016540;28;20053;-70
2021/06/17 06:01:11;;;;;;;3.47;1.98;;;16.40;99.90;;;;;;5016454;28;20064;-69
2021/06/17 06:03:38;;;;;;;5.90;2.30;;;16.50;99.90;;;;;;5017922;28;20053;-69
2021/06/17 06:06:22;;;;;;;2.48;1.51;;;16.50;99.90;;;;;;2585800;28;10003957;-67
2021/06/17 06:08:49;;;;;;;2.72;1.90;;;16.60;99.90;;;;;;3286792;28;10002356;-67
2021/06/17 06:11:18;;;;;;;4.68;1.70;;;16.70;99.90;;;;;;5016693;28;20128;-70
2021/06/17 06:13:46;;;;;;;2.53;1.88;;;16.70;99.90;;;;;;5017996;28;20083;-68
2021/06/17 06:16:13;;;;;;;3.55;1.65;;;16.80;99.90;;;;;;5014331;28;20462;-66
2021/06/17 06:18:40;;;;;;;2.70;1.40;;;16.80;99.90;;;;;;5014955;28;20049;-69
2021/06/17 06:21:07;;;;;;;3.45;2.05;;;16.90;99.90;;;;;;5049047;28;21459;-67
2021/06/17 06:23:34;;;;;;;4.03;2.10;;;16.90;99.90;;;;;;5017420;28;20049;-67
2021/06/17 06:26:01;;;;;;;3.53;1.88;;;17.00;99.90;;;;;;5017427;28;20227;-70
2021/06/17 06:28:30;;;;;;;1.92;1.70;;;17.00;99.90;;;;;;5012306;28;20421;-66
2021/06/17 06:30:58;;;;;;;3.03;1.80;;;17.10;99.90;;;;;;5017170;28;20046;-67
2021/06/17 06:33:25;;;;;;;3.30;2.17;;;17.20;99.90;;;;;;5013828;28;20202;-66
2021/06/17 06:35:52;;;;;;;3.17;1.45;;;17.30;99.90;;;;;;5018037;28;20136;-67
2021/06/17 06:38:19;;;;;;;8.98;2.17;;;17.30;99.90;;;;;;5016496;28;20056;-69
2021/06/17 06:40:46;;;;;;;7.15;1.95;;;17.40;99.90;;;;;;5016604;28;20052;-67
2021/06/17 06:43:15;;;;;;;3.08;1.70;;;17.50;99.90;;;;;;5015410;28;20110;-66
2021/06/17 06:45:43;;;;;;;8.25;1.98;;;17.50;99.90;;;;;;5018361;28;20045;-67
2021/06/17 06:48:10;;;;;;;3.65;1.38;;;17.70;99.90;;;;;;5032720;28;20095;-70
2021/06/17 06:50:37;;;;;;;1.70;1.35;;;17.70;99.90;;;;;;5016731;28;20041;-69
2021/06/17 06:53:04;;;;;;;2.70;1.30;;;17.70;99.90;;;;;;5016564;28;20126;-67
2021/06/17 06:55:31;;;;;;;7.28;1.60;;;17.80;99.90;;;;;;5018504;28;20061;-69
2021/06/17 06:57:58;;;;;;;2.10;1.40;;;17.90;99.90;;;;;;5014619;28;20041;-68
2021/06/17 07:00:25;;;;;;;2.42;1.05;;;17.90;99.90;;;;;;5015197;28;20037;-68
2021/06/17 07:02:52;;;;;;;1.40;1.17;;;18.10;99.90;;;;;;5016230;28;20281;-69
2021/06/17 07:05:19;;;;;;;3.70;1.30;;;18.10;99.90;;;;;;5016012;28;20793;-69
2021/06/17 07:07:46;;;;;;;1.52;1.20;;;18.20;99.90;;;;;;5015335;28;20136;-69
2021/06/17 07:10:14;;;;;;;3.42;1.33;;;18.30;99.90;;;;;;5016139;28;20048;-66
2021/06/17 07:12:42;;;;;;;3.92;1.77;;;18.40;99.90;;;;;;5015420;28;20055;-69
2021/06/17 07:15:10;;;;;;;3.25;1.42;;;18.40;99.90;;;;;;5015858;28;20046;-70
2021/06/17 07:17:37;;;;;;;4.38;1.20;;;18.50;99.90;;;;;;5016882;28;20687;-68
2021/06/17 07:20:06;;;;;;;3.63;1.10;;;18.50;99.90;;;;;;5017321;28;20391;-70
2021/06/17 07:22:33;;;;;;;4.30;2.22;;;18.60;99.90;;;;;;5013667;28;20124;-69
2021/06/17 07:25:00;;;;;;;1.33;1.23;;;18.80;99.90;;;;;;5014764;28;20570;-67
2021/06/17 07:27:27;;;;;;;2.95;1.20;;;18.80;99.60;;;;;;5011947;28;20503;-67
2021/06/17 07:29:54;;;;;;;3.75;1.05;;;18.90;99.90;;;;;;5016300;28;20118;-69
2021/06/17 07:32:21;;;;;;;1.42;1.33;;;18.90;99.80;;;;;;5014270;28;20180;-69
2021/06/17 07:34:48;;;;;;;2.03;1.48;;;19.00;99.90;;;;;;5017279;28;20132;-67
2021/06/17 07:37:16;;;;;;;6.47;1.83;;;19.00;99.60;;;;;;5017640;28;20704;-66
2021/06/17 07:39:44;;;;;;;1.38;1.08;;;19.10;99.70;;;;;;5014770;28;20127;-69
2021/06/17 07:42:11;;;;;;;2.35;1.08;;;19.20;98.30;;;;;;5015543;28;20107;-67
2021/06/17 07:44:38;;;;;;;3.58;1.10;;;19.30;98.50;;;;;;5014196;28;20049;-67
2021/06/17 07:47:05;;;;;;;3.35;0.85;;;19.40;98.60;;;;;;5015028;28;20045;-66
2021/06/17 07:49:32;;;;;;;4.22;1.10;;;19.50;98.40;;;;;;5015039;28;20131;-67
2021/06/17 07:52:00;;;;;;;3.35;1.25;;;19.50;97.10;;;;;;5014897;28;20426;-69
2021/06/17 07:54:27;;;;;;;2.03;0.80;;;19.60;97.00;;;;;;5012806;28;20127;-69
2021/06/17 07:56:56;;;;;;;1.58;1.40;;;19.70;95.60;;;;;;5014682;28;20110;-67
2021/06/17 07:59:23;;;;;;;1.50;1.17;;;19.70;96.80;;;;;;5013927;28;20078;-69
2021/06/17 08:01:51;;;;;;;2.10;1.05;;;19.80;95.10;;;;;;5014673;28;20776;-67
2021/06/17 08:04:18;;;;;;;1.90;0.65;;;19.90;96.10;;;;;;5015083;28;20399;-69
2021/06/17 08:06:45;;;;;;;1.83;1.10;;;19.90;96.60;;;;;;5012841;28;20111;-69
2021/06/17 08:09:18;;;;;;;1.10;0.75;;;20.10;95.70;;;;;;5015166;28;20132;-67
2021/06/17 08:11:46;;;;;;;3.78;1.30;;;20.20;95.50;;;;;;5015725;28;20053;-67
2021/06/17 08:14:28;;;;;;;0.80;0.70;;;20.30;94.90;;;;;;5012463;28;20601;-70
2021/06/17 08:16:56;;;;;;;2.13;1.08;;;20.40;94.50;;;;;;5016376;28;20100;-68
2021/06/17 08:19:31;;;;;;;0.88;0.75;;;20.50;94.20;;;;;;5014507;28;20085;-67
2021/06/17 08:22:03;;;;;;;1.60;1.30;;;20.60;93.90;;;;;;5015793;28;21360;-68
2021/06/17 08:24:30;;;;;;;2.80;1.33;;;20.70;93.70;;;;;;5012875;28;20049;-65
2021/06/17 08:26:57;;;;;;;2.13;1.20;;;20.80;94.00;;;;;;5015477;28;20100;-66
2021/06/17 08:29:24;;;;;;;4.75;0.82;;;20.90;93.70;;;;;;5013867;28;20099;-65
2021/06/17 08:31:52;;;;;;;1.45;0.80;;;21.00;94.20;;;;;;5015054;28;20117;-65
2021/06/17 08:34:20;;;;;;;2.10;1.30;;;21.10;93.00;;;;;;5007897;28;20057;-66
2021/06/17 08:36:47;;;;;;;1.85;1.40;;;21.20;94.40;;;;;;5009449;28;20135;-66
2021/06/17 08:39:13;;;;;;;1.98;1.70;;;21.30;93.90;;;;;;5010580;28;20131;-65
2021/06/17 08:41:40;;;;;;;1.75;1.08;;;21.40;93.30;;;;;;5016234;28;20089;-66
2021/06/17 08:44:07;;;;;;;1.40;1.00;;;21.40;93.20;;;;;;5011936;28;20267;-66
2021/06/17 08:46:34;;;;;;;3.15;1.52;;;21.40;92.80;;;;;;5007702;28;20081;-65
2021/06/17 08:49:02;;;;;;;1.92;1.13;;;21.60;93.90;;;;;;5014274;28;20037;-66
2021/06/17 08:51:32;;;;;;;2.28;1.23;;;21.60;92.90;;;;;;5013155;28;20772;-66
2021/06/17 08:53:59;;;;;;;2.97;0.98;;;21.60;94.20;;;;;;5014467;28;20085;-66
2021/06/17 08:56:26;;;;;;;2.72;0.93;;;21.80;93.60;;;;;;5012085;28;20080;-65
2021/06/17 08:58:55;;;;;;;1.17;0.80;;;21.80;94.30;;;;;;5014747;28;20514;-65
2021/06/17 09:01:22;;;;;;;2.20;1.90;;;22.00;94.40;;;;;;5015335;28;20064;-65
2021/06/17 09:03:49;;;;;;;1.83;0.95;;;22.00;95.00;;;;;;5013438;28;20060;-65
2021/06/17 09:06:22;;;;;;;2.63;1.20;;;22.00;94.50;;;;;;5013015;28;20041;-66
2021/06/17 09:09:00;;;;;;;5.25;2.50;;;22.10;95.00;;;;;;5015393;28;20130;-67
2021/06/17 09:11:28;;;;;;;6.20;1.50;;;22.40;95.10;;;;;;5018134;28;20539;-66
2021/06/17 09:14:18;;;;;;;2.42;1.25;;;22.30;94.50;;;;;;5015466;28;20049;-66
2021/06/17 09:17:03;;;;;;;3.57;1.50;;;22.40;94.00;;;;;;5015257;28;20057;-66
2021/06/17 09:19:33;;;;;;;4.05;2.00;;;22.20;94.40;;;;;;5017914;28;20303;-66
2021/06/17 09:22:01;;;;;;;6.47;1.45;;;22.20;94.40;;;;;;5049904;28;20061;-66
2021/06/17 09:24:36;;;;;;;5.15;2.20;;;22.20;95.70;;;;;;5016328;28;20053;-64
2021/06/17 09:27:26;;;;;;;3.75;1.40;;;22.30;94.90;;;;;;5020317;28;20130;-65
2021/06/17 09:30:13;;;;;;;1.45;1.35;;;22.40;94.80;;;;;;5016174;28;20076;-66
2021/06/17 09:32:52;;;;;;;4.30;1.67;;;22.50;95.60;;;;;;5017018;28;20135;-64
2021/06/17 09:35:25;;;;;;;6.03;2.30;;;22.60;94.00;;;;;;5018951;28;20041;-66
2021/06/17 09:38:01;;;;;;;3.55;1.30;;;22.60;94.70;;;;;;5017990;28;20099;-65
2021/06/17 09:40:32;;;;;;;2.97;1.20;;;22.60;94.70;;;;;;5017192;28;20049;-66
2021/06/17 09:43:18;;;;;;;5.07;1.83;;;22.80;94.60;;;;;;5015951;28;20077;-65
2021/06/17 09:45:53;;;;;;;4.10;1.80;;;23.00;94.50;;;;;;5018806;28;20049;-65
2021/06/17 09:48:30;;;;;;;1.95;1.25;;;23.10;94.60;;;;;;5012970;28;20045;-65
2021/06/17 09:50:57;;;;;;;1.77;1.30;;;23.10;94.40;;;;;;5018677;28;20064;-65
2021/06/17 09:53:26;;;;;;;2.83;1.40;;;23.30;93.90;;;;;;5014551;28;20045;-66
2021/06/17 09:55:54;;;;;;;4.22;2.38;;;23.40;94.00;;;;;;5018029;28;20136;-65
2021/06/17 09:58:38;;;;;;;3.75;1.67;;;23.50;93.60;;;;;;5013339;28;20167;-66
2021/06/17 10:01:15;;;;;;;4.45;0.85;;;23.60;93.00;;;;;;5019388;28;20050;-66
2021/06/17 10:03:58;;;;;;;5.18;2.42;;;23.50;93.20;;;;;;5016592;28;20053;-66
2021/06/17 10:06:26;;;;;;;3.47;1.40;;;23.70;93.10;;;;;;5015161;28;20734;-66
2021/06/17 10:08:54;;;;;;;2.20;1.65;;;23.80;93.30;;;;;;5016104;28;20141;-66
2021/06/17 10:11:22;;;;;;;1.95;1.38;;;23.80;92.80;;;;;;5016501;28;20119;-66
2021/06/17 10:13:49;;;;;;;5.15;2.15;;;23.90;93.10;;;;;;5015874;28;20057;-66
2021/06/17 10:16:18;;;;;;;6.03;1.73;;;23.90;93.00;;;;;;5015313;28;20065;-67
2021/06/17 10:18:45;;;;;;;3.42;1.33;;;24.10;93.00;;;;;;5014705;28;20056;-66
2021/06/17 10:21:17;;;;;;;2.50;1.45;;;24.20;92.40;;;;;;5016347;28;20178;-66
2021/06/17 10:23:50;;;;;;;2.88;1.48;;;24.10;92.10;;;;;;5017972;28;20053;-66
2021/06/17 10:26:23;;;;;;;3.15;1.50;;;24.10;92.70;;;;;;5016256;28;20485;-66
2021/06/17 10:28:55;;;;;;;4.85;1.15;;;24.30;93.20;;;;;;5015319;28;20087;-66
2021/06/17 10:31:47;;;;;;;2.38;0.95;;;24.30;92.40;;;;;;5016092;28;20111;-66
2021/06/17 10:34:24;;;;;;;1.45;1.10;;;24.40;92.40;;;;;;5015128;28;20128;-66
2021/06/17 10:37:16;;;;;;;2.00;1.17;;;24.50;92.00;;;;;;5012654;28;20073;-65
2021/06/17 10:39:47;;;;;;;5.28;2.05;;;24.50;92.60;;;;;;5017948;28;20134;-65
2021/06/17 10:42:25;;;;;;;1.23;0.95;;;24.50;91.90;;;;;;5015163;28;20128;-65
2021/06/17 10:44:56;;;;;;;3.40;1.50;;;24.50;92.10;;;;;;5016865;28;20075;-66
2021/06/17 10:50:22;;;;;;;3.95;1.65;;;24.60;91.90;;;;;;5016383;28;20458;-63
2021/06/17 10:53:13;;;;;;;7.40;1.98;;;24.50;91.90;;;;;;5014487;28;20065;-63
2021/06/17 10:56:07;;;;;;;2.75;1.40;;;24.70;92.20;;;;;;5010556;28;20034;-63
2021/06/17 10:58:43;;;;;;;4.07;1.30;;;24.80;92.10;;;;;;5012294;28;20127;-63
2021/06/17 11:01:26;;;;;;;5.00;1.70;;;24.90;92.20;;;;;;5014102;28;20041;-63
2021/06/17 11:04:00;;;;;;;1.50;1.35;;;24.90;92.70;;;;;;5015744;28;20430;-63
2021/06/17 11:06:52;;;;;;;4.57;1.98;;;25.10;91.80;;;;;;5013052;28;21589;-63
2021/06/17 11:09:34;;;;;;;2.58;1.35;;;25.10;91.80;;;;;;5016134;28;20061;-63
2021/06/17 11:12:25;;;;;;;6.40;1.80;;;25.20;92.30;;;;;;5016678;28;20045;-63
2021/06/17 11:14:57;;;;;;;5.53;2.22;;;25.30;92.10;;;;;;5014755;28;20095;-63
2021/06/17 11:17:31;;;;;;;3.88;1.27;;;25.10;92.10;;;;;;5017020;28;20167;-63
2021/06/17 11:20:05;;;;;;;3.53;2.40;;;25.10;92.90;;;;;;5015430;28;20045;-63
2021/06/17 11:22:39;;;;;;;4.30;2.55;;;25.20;93.00;;;;;;5014603;28;20115;-63
2021/06/17 11:25:19;;;;;;;6.95;1.85;;;25.30;93.00;;;;;;5016249;28;20168;-63
2021/06/17 11:28:11;;;;;;;2.83;1.60;;;25.30;92.60;;;;;;5017387;28;20361;-63
2021/06/17 11:30:38;;;;;;;6.80;2.33;;;25.40;92.40;;;;;;5016628;28;20164;-63
2021/06/17 11:33:20;;;;;;;6.82;2.25;;;25.40;92.60;;;;;;5016482;28;20084;-63
2021/06/17 11:35:55;;;;;;;4.78;1.85;;;25.40;93.10;;;;;;5015743;28;20438;-63
2021/06/17 11:38:24;;;;;;;6.25;2.25;;;25.50;92.90;;;;;;5014305;28;20053;-63
2021/06/17 11:40:51;;;;;;;3.60;1.45;;;25.50;92.90;;;;;;5017394;28;20618;-63
2021/06/17 11:43:27;;;;;;;3.53;1.40;;;25.50;92.20;;;;;;5015606;28;20110;-63
2021/06/17 11:45:55;;;;;;;3.28;1.35;;;25.40;92.40;;;;;;5016346;28;20132;-60
2021/06/17 11:48:22;;;;;;;3.75;1.85;;;25.50;92.60;;;;;;5015276;28;20131;-61
2021/06/17 11:50:52;;;;;;;3.90;2.13;;;25.60;91.40;;;;;;5015482;28;20588;-61
2021/06/17 11:53:24;;;;;;;3.38;1.70;;;25.80;91.70;;;;;;5016291;28;20041;-60
2021/06/17 11:55:53;;;;;;;2.72;1.70;;;26.00;92.70;;;;;;5017139;28;20144;-60
2021/06/17 11:58:21;;;;;;;3.17;2.42;;;26.10;91.70;;;;;;5016454;28;20160;-60
2021/06/17 12:00:48;;;;;;;2.80;1.75;;;26.00;90.90;;;;;;5010715;28;20077;-61
2021/06/17 12:03:20;;;;;;;4.45;2.05;;;25.90;92.20;;;;;;5016511;28;20144;-61
2021/06/17 12:05:47;;;;;;;3.20;1.35;;;26.00;92.00;;;;;;5016244;28;20049;-60
2021/06/17 12:08:14;;;;;;;1.33;1.20;;;26.10;91.10;;;;;;5016590;28;20076;-60
2021/06/17 12:10:43;;;;;;;6.60;2.47;;;26.10;91.70;;;;;;5014841;28;20099;-60
2021/06/17 12:13:10;;;;;;;4.13;1.70;;;26.20;91.50;;;;;;5015732;28;20072;-60
2021/06/17 12:15:43;;;;;;;2.35;1.10;;;26.30;91.70;;;;;;5015454;28;20441;-60
2021/06/17 12:18:12;;;;;;;3.15;2.33;;;26.20;90.90;;;;;;5017093;28;20060;-60
2021/06/17 12:20:45;;;;;;;1.75;1.63;;;26.00;91.00;;;;;;5011916;28;20050;-60
2021/06/17 12:23:17;;;;;;;3.45;2.13;;;26.00;91.00;;;;;;5013513;28;20727;-60
2021/06/17 12:26:04;;;;;;;4.05;1.70;;;26.10;91.20;;;;;;5012789;28;20132;-61
2021/06/17 12:28:31;;;;;;;1.75;1.30;;;26.30;91.50;;;;;;5014348;28;20147;-63
2021/06/17 12:30:59;;;;;;;3.25;1.63;;;26.30;91.20;;;;;;5014604;28;20598;-63
2021/06/17 12:33:31;;;;;;;3.08;1.85;;;26.40;91.80;;;;;;5017002;28;20130;-63
2021/06/17 12:36:05;;;;;;;1.90;1.45;;;26.40;91.90;;;;;;5015092;28;20049;-63
2021/06/17 12:38:34;;;;;;;3.28;2.17;;;26.40;91.70;;;;;;5013390;28;20225;-63
2021/06/17 12:41:21;;;;;;;3.03;1.50;;;26.60;92.00;;;;;;5014141;28;20705;-63
2021/06/17 12:43:55;;;;;;;2.10;1.27;;;26.60;90.90;;;;;;5019397;28;20053;-63
2021/06/17 12:46:25;;;;;;;3.35;1.50;;;26.60;91.60;;;;;;5017981;28;20176;-63
2021/06/17 12:54:31;;;;;;;1.73;1.63;;;26.60;91.00;;;;;;5017422;28;20414;-63
2021/06/17 12:57:27;;;;;;;3.67;1.42;;;26.50;91.50;;;;;;5018788;28;20103;-63
2021/06/17 12:59:58;;;;;;;2.92;1.88;;;26.60;91.20;;;;;;5015021;28;20103;-63
2021/06/17 13:02:31;;;;;;;4.13;1.40;;;26.60;91.10;;;;;;5018792;28;20131;-63
2021/06/17 13:05:10;;;;;;;1.75;1.30;;;26.90;91.50;;;;;;5013684;28;20049;-60
2021/06/17 13:07:40;;;;;;;3.10;1.58;;;26.80;90.80;;;;;;5019448;28;20469;-60
2021/06/17 13:10:11;;;;;;;;;;;26.90;90.80;;;;;;5019469;28;20182;-61
2021/06/17 13:12:45;;;;;;;1.67;1.58;;;26.80;90.80;;;;;;5018333;28;20015;-60
2021/06/17 13:15:16;;;;;;;3.40;1.83;;;26.50;90.90;;;;;;5018783;28;20053;-61
2021/06/17 13:18:05;;;;;;;4.63;1.73;;;26.60;91.30;;;;;;5018012;28;20049;-63